Terminal Aerodrome Forecast
Issued by NWS

Home | Current Version | Previous Version | Text Only | Print | Product List | Glossary On
Versions: 1 2 3 4 5 6 7 8 9 10 11 12 13 14 15 16 17 18 19 20 21
022
FTUS43 KLSX 241422 AAC
TAFUIN
TAF AMD
KUIN 241422Z 2414/2512 30010KT 1SM BR OVC008
      TEMPO 2414/2415 1/4SM FG VV002
     FM241500 29013G23KT 2SM BR OVC008
     FM241700 28013G23KT P6SM OVC009
     FM250200 30014G24KT P6SM OVC015=

USA.gov is the U.S. government's official web portal to all federal, state and local government web resources and services.